createdAt,value
2023-10-26T00:00:09.711Z,1.73
2023-10-26T00:02:36.402Z,1.67
2023-10-26T00:05:03.076Z,1.63
2023-10-26T00:07:29.546Z,1.80
2023-10-26T00:09:56.098Z,1.90
2023-10-26T00:12:22.668Z,1.97
2023-10-26T00:14:49.268Z,1.75
2023-10-26T00:17:15.778Z,1.90
2023-10-26T00:19:42.214Z,2.00
2023-10-26T00:22:08.654Z,2.13
2023-10-26T00:24:35.282Z,1.80
2023-10-26T00:27:01.808Z,1.90
2023-10-26T00:29:28.285Z,2.00
2023-10-26T00:31:55.389Z,2.38
2023-10-26T00:34:21.864Z,1.80
2023-10-26T00:36:48.659Z,2.60
2023-10-26T00:39:15.173Z,2.00
2023-10-26T00:41:42.608Z,1.80
2023-10-26T00:44:09.154Z,2.00
2023-10-26T00:46:36.883Z,2.13
2023-10-26T00:49:03.931Z,2.20
2023-10-26T00:51:30.897Z,2.20
2023-10-26T00:53:57.606Z,2.40
2023-10-26T00:56:26.737Z,2.00
2023-10-26T00:58:54.341Z,2.40
2023-10-26T01:01:20.928Z,2.43
2023-10-26T01:03:48.226Z,2.30
2023-10-26T01:06:14.801Z,2.30
2023-10-26T01:08:41.477Z,2.45
2023-10-26T01:11:08.073Z,3.05
2023-10-26T01:13:34.778Z,2.60
2023-10-26T01:16:03.352Z,2.25
2023-10-26T01:18:32.079Z,2.60
2023-10-26T01:20:58.913Z,2.40
2023-10-26T01:23:25.482Z,2.50
2023-10-26T01:25:57.493Z,2.90
2023-10-26T01:28:24.712Z,2.60
2023-10-26T01:30:51.445Z,2.45
2023-10-26T01:33:18.002Z,2.50
2023-10-26T01:35:47.029Z,5.75
2023-10-26T01:38:14.590Z,2.83
2023-10-26T01:40:41.203Z,3.22
2023-10-26T01:43:07.822Z,4.78
2023-10-26T01:45:34.326Z,5.18
2023-10-26T01:48:01.368Z,4.50
2023-10-26T01:50:28.036Z,5.33
2023-10-26T01:52:54.886Z,3.53
2023-10-26T01:55:21.325Z,3.92
2023-10-26T01:57:47.894Z,3.15
2023-10-26T02:00:17.299Z,3.05
2023-10-26T02:02:43.883Z,3.13
2023-10-26T02:05:10.434Z,3.05
2023-10-26T02:07:36.977Z,3.40
2023-10-26T02:10:03.809Z,2.80
2023-10-26T02:12:30.346Z,3.40
2023-10-26T02:14:56.819Z,2.97
2023-10-26T02:17:23.584Z,3.38
2023-10-26T02:19:50.132Z,3.40
2023-10-26T02:22:16.678Z,3.10
2023-10-26T02:24:43.451Z,3.40
2023-10-26T02:27:10.245Z,4.13
2023-10-26T02:29:36.719Z,3.30
2023-10-26T02:32:03.593Z,3.35
2023-10-26T02:34:30.165Z,3.50
2023-10-26T02:36:58.540Z,3.92
2023-10-26T02:39:26.059Z,3.93
2023-10-26T02:41:52.843Z,3.97
2023-10-26T02:44:19.433Z,3.67
2023-10-26T02:46:45.953Z,3.97
2023-10-26T02:49:12.517Z,4.00
2023-10-26T02:51:38.995Z,3.90
2023-10-26T02:54:05.611Z,3.67
2023-10-26T02:56:32.165Z,4.60
2023-10-26T02:58:58.673Z,4.35
2023-10-26T03:01:25.105Z,3.78
2023-10-26T03:03:52.333Z,4.10
2023-10-26T03:06:18.910Z,4.00
2023-10-26T03:08:45.452Z,4.40
2023-10-26T03:11:11.921Z,4.22
2023-10-26T03:13:38.645Z,3.78
2023-10-26T03:16:07.143Z,9.37
2023-10-26T03:18:33.656Z,4.97
2023-10-26T03:21:00.237Z,4.90
2023-10-26T03:23:26.678Z,4.38
2023-10-26T03:25:53.193Z,4.40
2023-10-26T03:28:19.682Z,5.13
2023-10-26T03:30:46.115Z,11.98
2023-10-26T03:33:12.666Z,5.18
2023-10-26T03:35:39.174Z,5.47
2023-10-26T03:38:05.699Z,4.85
2023-10-26T03:40:32.176Z,5.77
2023-10-26T03:42:58.675Z,5.90
2023-10-26T03:45:28.160Z,5.57
2023-10-26T03:47:54.826Z,5.85
2023-10-26T03:50:21.448Z,6.13
2023-10-26T03:52:47.886Z,5.93
2023-10-26T03:55:14.412Z,5.38
2023-10-26T03:57:40.833Z,6.07
2023-10-26T04:00:09.359Z,6.00
2023-10-26T04:02:35.852Z,6.10
2023-10-26T04:05:02.331Z,6.03
2023-10-26T04:07:28.819Z,6.03
2023-10-26T04:09:55.405Z,5.88
2023-10-26T04:12:21.938Z,6.05
2023-10-26T04:14:48.402Z,7.15
2023-10-26T04:17:16.795Z,6.20
2023-10-26T04:19:43.242Z,6.32
2023-10-26T04:22:09.721Z,6.03
2023-10-26T04:24:36.205Z,5.85
2023-10-26T04:27:02.865Z,6.60
2023-10-26T04:29:29.366Z,5.80
2023-10-26T04:31:55.913Z,6.55
2023-10-26T04:34:22.553Z,6.97
2023-10-26T04:36:49.155Z,6.78
2023-10-26T04:39:16.834Z,6.80
2023-10-26T04:41:44.348Z,6.97
2023-10-26T04:44:11.089Z,7.20
2023-10-26T04:46:37.655Z,6.78
2023-10-26T04:49:04.900Z,7.18
2023-10-26T04:51:33.351Z,6.68
2023-10-26T04:53:59.903Z,6.50
2023-10-26T04:56:26.381Z,6.30
2023-10-26T04:58:52.860Z,6.78
2023-10-26T05:01:19.353Z,6.75
2023-10-26T05:03:46.096Z,7.43
2023-10-26T05:06:12.956Z,6.73
2023-10-26T05:08:39.475Z,7.05
2023-10-26T05:11:06.109Z,7.38
2023-10-26T05:13:32.833Z,6.85
2023-10-26T05:15:59.605Z,7.10
2023-10-26T05:18:26.179Z,7.67
2023-10-26T05:20:52.657Z,7.40
2023-10-26T05:23:19.707Z,7.38
2023-10-26T05:25:46.188Z,7.30
2023-10-26T05:28:12.663Z,7.10
2023-10-26T05:30:39.257Z,6.63
2023-10-26T05:33:06.005Z,7.40
2023-10-26T05:35:32.639Z,7.00
2023-10-26T05:37:59.180Z,7.03
2023-10-26T05:40:25.865Z,7.13
2023-10-26T05:42:52.373Z,7.00
2023-10-26T05:45:19.014Z,6.68
2023-10-26T05:47:45.544Z,6.72
2023-10-26T05:50:12.012Z,6.50
2023-10-26T05:52:38.475Z,6.63
2023-10-26T05:55:05.419Z,6.67
2023-10-26T05:57:32.074Z,6.43
2023-10-26T05:59:59.673Z,6.68
2023-10-26T06:02:26.226Z,6.75
2023-10-26T06:04:52.833Z,7.25
2023-10-26T06:07:19.349Z,6.90
2023-10-26T06:09:45.830Z,7.15
2023-10-26T06:12:13.362Z,7.45
2023-10-26T06:14:39.964Z,6.82
2023-10-26T06:17:06.467Z,7.45
2023-10-26T06:19:34.889Z,6.63
2023-10-26T06:22:01.407Z,6.90
2023-10-26T06:24:28.221Z,7.97
2023-10-26T06:26:54.839Z,7.22
2023-10-26T06:29:21.317Z,7.00
2023-10-26T06:31:47.878Z,6.93
2023-10-26T06:34:14.448Z,7.07
2023-10-26T06:36:40.966Z,6.70
2023-10-26T06:39:07.471Z,7.25
2023-10-26T06:41:34.377Z,6.72
2023-10-26T06:44:00.810Z,6.40
2023-10-26T06:46:27.350Z,6.70
2023-10-26T06:48:55.361Z,6.70
2023-10-26T06:51:22.021Z,6.53
2023-10-26T06:53:48.514Z,7.70
2023-10-26T06:56:15.101Z,6.90
2023-10-26T06:58:43.517Z,6.72
2023-10-26T07:01:20.720Z,6.63
2023-10-26T07:03:52.201Z,6.53
2023-10-26T07:06:19.826Z,5.85
2023-10-26T07:08:46.334Z,6.30
2023-10-26T07:11:12.785Z,6.38
2023-10-26T07:13:39.715Z,5.97
2023-10-26T07:16:06.662Z,6.10
2023-10-26T07:18:34.886Z,7.03
2023-10-26T07:21:08.742Z,6.00
2023-10-26T07:23:35.933Z,6.28
2023-10-26T07:26:03.481Z,6.32
2023-10-26T07:28:30.246Z,6.20
2023-10-26T07:30:56.767Z,5.13
2023-10-26T07:33:23.347Z,6.20
2023-10-26T07:35:56.432Z,5.85
2023-10-26T07:38:34.667Z,9.85
2023-10-26T07:41:06.128Z,8.32
2023-10-26T07:43:33.365Z,7.47
2023-10-26T07:45:59.916Z,6.63
2023-10-26T07:48:26.545Z,6.90
2023-10-26T07:50:53.115Z,7.50
2023-10-26T07:53:19.691Z,6.22
2023-10-26T07:55:46.182Z,6.38
2023-10-26T07:58:12.788Z,5.87
2023-10-26T08:00:39.548Z,5.60
2023-10-26T08:03:06.179Z,5.97
2023-10-26T08:05:32.779Z,5.97
2023-10-26T08:07:59.366Z,6.03
2023-10-26T08:10:27.331Z,6.30
2023-10-26T08:12:54.423Z,5.50
2023-10-26T08:16:11.180Z,4.70
2023-10-26T08:18:13.134Z,4.45
2023-10-26T08:20:40.178Z,4.68
2023-10-26T08:23:06.714Z,4.13
2023-10-26T08:25:37.465Z,4.40
2023-10-26T08:28:04.251Z,4.47
2023-10-26T08:30:30.905Z,4.40
2023-10-26T08:32:57.638Z,4.43
2023-10-26T08:35:24.392Z,4.70
2023-10-26T08:37:51.151Z,3.58
2023-10-26T08:40:18.138Z,4.35
2023-10-26T08:42:44.788Z,4.78
2023-10-26T08:45:20.179Z,3.72
2023-10-26T08:47:52.611Z,3.57
2023-10-26T08:50:24.801Z,3.35
2023-10-26T08:52:54.534Z,4.20
2023-10-26T08:55:21.502Z,3.90
2023-10-26T08:57:53.190Z,4.07
2023-10-26T09:00:20.732Z,3.60
2023-10-26T09:02:49.667Z,3.30
2023-10-26T09:05:16.610Z,2.95
2023-10-26T09:07:43.302Z,3.30
2023-10-26T09:10:10.389Z,3.15
2023-10-26T09:12:36.920Z,3.60
2023-10-26T09:15:07.347Z,3.85
2023-10-26T09:17:35.043Z,2.72
2023-10-26T09:20:18.395Z,2.50
2023-10-26T09:22:45.109Z,2.70
2023-10-26T09:25:13.288Z,3.13
2023-10-26T09:27:40.848Z,2.45
2023-10-26T09:30:33.961Z,2.90
2023-10-26T09:33:01.175Z,2.70
2023-10-26T09:35:34.933Z,3.13
2023-10-26T09:38:01.868Z,2.70
2023-10-26T09:40:28.819Z,3.30
2023-10-26T09:42:57.258Z,3.45
2023-10-26T09:45:24.220Z,2.53
2023-10-26T09:47:51.034Z,2.35
2023-10-26T09:50:18.300Z,3.10
2023-10-26T09:52:45.763Z,2.97
2023-10-26T09:55:13.094Z,2.35
2023-10-26T09:58:09.992Z,2.13
2023-10-26T10:00:36.645Z,1.95
2023-10-26T10:03:10.335Z,2.10
2023-10-26T10:05:38.745Z,2.45
2023-10-26T10:08:05.937Z,2.70
2023-10-26T10:10:33.411Z,2.38
2023-10-26T10:13:00.542Z,3.03
2023-10-26T10:15:41.948Z,6.40
2023-10-26T10:18:10.107Z,3.08
2023-10-26T10:20:40.616Z,4.88
2023-10-26T10:23:07.713Z,9.32
2023-10-26T10:25:52.344Z,4.00
2023-10-26T10:28:19.938Z,10.97
2023-10-26T10:30:56.760Z,5.50
2023-10-26T10:33:26.491Z,5.18
2023-10-26T10:36:04.079Z,3.30
2023-10-26T10:38:32.020Z,3.08
2023-10-26T10:41:02.532Z,3.10
2023-10-26T10:43:35.896Z,2.97
2023-10-26T10:46:21.412Z,3.10
2023-10-26T10:49:09.808Z,3.63
2023-10-26T10:51:45.754Z,3.17
2023-10-26T10:54:27.021Z,3.70
2023-10-26T10:57:05.778Z,2.67
2023-10-26T10:59:32.358Z,2.75
2023-10-26T11:02:13.238Z,3.05
2023-10-26T11:05:05.576Z,2.30
2023-10-26T11:07:39.934Z,2.57
2023-10-26T11:10:07.119Z,3.65
2023-10-26T11:12:33.755Z,2.97
2023-10-26T11:15:01.347Z,2.58
2023-10-26T11:17:30.378Z,2.40
2023-10-26T11:19:57.268Z,2.67
2023-10-26T11:22:24.312Z,2.10
2023-10-26T11:24:51.140Z,5.35
2023-10-26T11:27:19.924Z,4.15
2023-10-26T11:30:06.330Z,2.72
2023-10-26T11:32:33.766Z,2.63
2023-10-26T11:35:03.949Z,3.08
2023-10-26T11:37:31.200Z,3.85
2023-10-26T11:39:57.771Z,3.90
2023-10-26T11:42:46.381Z,4.00
2023-10-26T11:45:14.577Z,3.93
2023-10-26T11:48:10.604Z,3.70
2023-10-26T11:50:37.256Z,4.18
2023-10-26T11:53:05.161Z,4.20
2023-10-26T11:55:33.329Z,3.78
2023-10-26T11:58:01.579Z,5.70
2023-10-26T12:00:29.647Z,4.38
2023-10-26T12:03:00.768Z,4.70
2023-10-26T12:05:28.462Z,4.40
2023-10-26T12:07:55.689Z,4.50
2023-10-26T12:10:24.313Z,4.60
2023-10-26T12:12:51.087Z,4.88
2023-10-26T12:15:18.710Z,4.57
2023-10-26T12:17:46.299Z,4.45
2023-10-26T12:20:14.653Z,4.30
2023-10-26T12:22:41.491Z,3.80
2023-10-26T12:25:09.292Z,3.92
2023-10-26T12:28:19.764Z,4.35
2023-10-26T12:30:22.828Z,3.75
2023-10-26T12:32:49.390Z,4.53
2023-10-26T12:35:16.002Z,3.97
2023-10-26T12:37:42.572Z,4.60
2023-10-26T12:40:09.577Z,4.55
2023-10-26T12:42:36.990Z,4.68
2023-10-26T12:45:04.067Z,3.72
2023-10-26T12:47:30.616Z,19.63
2023-10-26T12:49:57.198Z,5.13
2023-10-26T12:52:23.712Z,4.80
2023-10-26T12:54:50.298Z,5.00
2023-10-26T12:57:16.906Z,5.82
2023-10-26T12:59:43.390Z,3.83
2023-10-26T13:02:09.992Z,4.22
2023-10-26T13:04:37.233Z,4.22
2023-10-26T13:07:04.154Z,3.75
2023-10-26T13:09:30.906Z,4.05
2023-10-26T13:11:57.558Z,3.10
2023-10-26T13:14:24.047Z,3.45
2023-10-26T13:16:57.769Z,3.90
2023-10-26T13:19:26.051Z,3.25
2023-10-26T13:21:52.543Z,3.45
2023-10-26T13:24:19.028Z,3.43
2023-10-26T13:26:45.567Z,3.33
2023-10-26T13:29:12.254Z,3.72
2023-10-26T13:31:38.828Z,3.22
2023-10-26T13:34:05.441Z,3.30
2023-10-26T13:36:32.041Z,2.70
2023-10-26T13:38:58.560Z,2.30
2023-10-26T13:41:25.091Z,2.50
2023-10-26T13:43:51.920Z,3.00
2023-10-26T13:46:18.517Z,3.13
2023-10-26T13:48:45.075Z,3.13
2023-10-26T13:54:04.891Z,3.42
2023-10-26T13:56:31.352Z,3.25
2023-10-26T13:58:57.798Z,3.65
2023-10-26T14:01:26.082Z,3.87
2023-10-26T14:03:52.722Z,3.58
2023-10-26T14:06:19.356Z,3.78
2023-10-26T14:08:45.896Z,4.10
2023-10-26T14:11:17.114Z,3.90
2023-10-26T14:13:44.055Z,3.87
2023-10-26T14:16:11.866Z,3.58
2023-10-26T14:18:38.371Z,4.03
2023-10-26T14:21:05.013Z,4.03
2023-10-26T14:23:31.518Z,4.07
2023-10-26T14:25:58.065Z,3.90
2023-10-26T14:28:24.712Z,4.28
2023-10-26T14:30:51.214Z,4.20
2023-10-26T14:33:17.694Z,4.00
2023-10-26T14:35:44.180Z,4.13
2023-10-26T14:38:10.677Z,4.40
2023-10-26T14:40:38.265Z,3.90
2023-10-26T14:43:04.802Z,4.38
2023-10-26T14:45:34.639Z,4.78
2023-10-26T14:48:01.547Z,4.30
2023-10-26T14:50:28.135Z,4.10
2023-10-26T14:52:54.643Z,4.43
2023-10-26T14:55:21.459Z,4.32
2023-10-26T14:57:48.066Z,4.57
2023-10-26T15:00:14.765Z,4.57
2023-10-26T15:02:41.369Z,4.50
2023-10-26T15:05:08.326Z,4.70
2023-10-26T15:07:34.756Z,4.10
2023-10-26T15:10:20.923Z,4.40
2023-10-26T15:12:47.776Z,4.80
2023-10-26T15:15:14.395Z,4.07
2023-10-26T15:17:40.910Z,4.13
2023-10-26T15:20:08.036Z,4.43
2023-10-26T15:22:34.533Z,4.20
2023-10-26T15:25:00.982Z,4.28
2023-10-26T15:27:27.627Z,4.57
2023-10-26T15:29:54.115Z,4.80
2023-10-26T15:32:20.870Z,4.22
2023-10-26T15:34:47.935Z,4.65
2023-10-26T15:37:15.205Z,5.00
2023-10-26T15:39:45.360Z,4.77
2023-10-26T15:42:18.492Z,5.63
2023-10-26T15:44:49.601Z,5.32
2023-10-26T15:47:16.743Z,5.03
2023-10-26T15:49:45.136Z,5.40
2023-10-26T15:52:11.784Z,5.60
2023-10-26T15:54:38.327Z,5.93
2023-10-26T15:57:05.074Z,5.93
2023-10-26T15:59:31.646Z,7.07
2023-10-26T16:01:58.105Z,7.82
2023-10-26T16:04:24.698Z,7.40
2023-10-26T16:06:51.284Z,6.90
2023-10-26T16:09:18.067Z,7.35
2023-10-26T16:11:44.670Z,7.88
2023-10-26T16:14:11.339Z,7.80
2023-10-26T16:16:37.971Z,6.83
2023-10-26T16:19:05.496Z,6.80
2023-10-26T16:21:32.328Z,5.82
2023-10-26T16:23:58.912Z,7.10
2023-10-26T16:26:25.428Z,6.90
2023-10-26T16:28:51.920Z,6.20
2023-10-26T16:31:18.509Z,6.97
2023-10-26T16:33:45.938Z,7.13
2023-10-26T16:36:12.908Z,7.95
2023-10-26T16:38:39.371Z,8.55
2023-10-26T16:41:05.874Z,7.27
2023-10-26T16:43:32.364Z,7.65
2023-10-26T16:45:59.928Z,7.72
2023-10-26T16:48:27.556Z,6.65
2023-10-26T16:50:56.045Z,8.00
2023-10-26T16:53:31.143Z,8.10
2023-10-26T16:56:04.261Z,7.30
2023-10-26T16:58:32.933Z,7.03
2023-10-26T17:01:00.224Z,7.55
2023-10-26T17:03:27.813Z,7.07
2023-10-26T17:05:54.615Z,8.10
2023-10-26T17:08:22.194Z,8.25
2023-10-26T17:10:51.810Z,9.90
2023-10-26T17:13:18.407Z,8.55
2023-10-26T17:15:45.900Z,8.73
2023-10-26T17:18:12.738Z,7.97
2023-10-26T17:20:39.325Z,7.85
2023-10-26T17:23:05.856Z,8.65
2023-10-26T17:25:35.878Z,7.68
2023-10-26T17:28:03.290Z,8.02
2023-10-26T17:30:30.548Z,8.70
2023-10-26T17:32:57.514Z,10.85
2023-10-26T17:35:24.287Z,10.10
2023-10-26T17:37:50.973Z,9.60
2023-10-26T17:40:17.758Z,9.40
2023-10-26T17:42:44.401Z,8.50
2023-10-26T17:45:11.028Z,10.52
2023-10-26T17:47:37.587Z,10.45
2023-10-26T17:50:04.383Z,10.70
2023-10-26T17:52:31.055Z,10.05
2023-10-26T17:54:58.077Z,15.87
2023-10-26T17:57:25.248Z,15.25
2023-10-26T17:59:51.776Z,11.70
2023-10-26T18:02:18.221Z,10.73
2023-10-26T18:04:44.654Z,10.38
2023-10-26T18:07:15.676Z,10.70
2023-10-26T18:09:42.705Z,10.60
2023-10-26T18:12:11.694Z,10.00
2023-10-26T18:14:38.857Z,10.65
2023-10-26T18:17:05.371Z,10.48
2023-10-26T18:19:31.876Z,10.33
2023-10-26T18:21:58.347Z,10.50
2023-10-26T18:24:24.933Z,10.70
2023-10-26T18:26:51.406Z,11.05
2023-10-26T18:29:17.967Z,10.73
2023-10-26T18:31:44.532Z,11.80
2023-10-26T18:34:11.187Z,11.73
2023-10-26T18:36:40.030Z,11.88
2023-10-26T18:39:06.862Z,11.45
2023-10-26T18:41:34.015Z,10.98
2023-10-26T18:44:01.315Z,12.20
2023-10-26T18:46:28.010Z,11.32
2023-10-26T18:48:54.865Z,13.35
2023-10-26T18:51:24.204Z,15.25
2023-10-26T18:53:50.992Z,14.25
2023-10-26T18:56:21.279Z,13.53
2023-10-26T18:58:47.940Z,14.75
2023-10-26T19:01:14.584Z,15.80
2023-10-26T19:03:53.737Z,14.45
2023-10-26T19:06:27.597Z,13.77
2023-10-26T19:08:54.210Z,14.43
2023-10-26T19:11:20.732Z,13.82
2023-10-26T19:13:48.703Z,13.45
2023-10-26T19:16:15.777Z,11.95
2023-10-26T19:18:42.636Z,12.40
2023-10-26T19:21:09.512Z,12.13
2023-10-26T19:23:36.025Z,13.13
2023-10-26T19:26:03.004Z,15.57
2023-10-26T19:28:29.618Z,14.75
2023-10-26T19:30:56.335Z,13.90
2023-10-26T19:33:25.791Z,13.60
2023-10-26T19:35:53.328Z,13.95
2023-10-26T19:38:19.864Z,15.95
2023-10-26T19:40:46.385Z,15.15
2023-10-26T19:43:13.503Z,14.95
2023-10-26T19:45:43.197Z,15.70
2023-10-26T19:48:09.964Z,16.33
2023-10-26T19:50:36.407Z,13.43
2023-10-26T19:53:02.979Z,13.48
2023-10-26T19:55:29.640Z,14.38
2023-10-26T19:57:56.142Z,13.50
2023-10-26T20:00:22.982Z,13.57
2023-10-26T20:02:49.594Z,13.77
2023-10-26T20:05:16.238Z,13.02
2023-10-26T20:07:42.805Z,13.32
2023-10-26T20:10:09.514Z,12.43
2023-10-26T20:12:39.389Z,13.93
2023-10-26T20:15:06.820Z,12.63
2023-10-26T20:17:33.957Z,11.57
2023-10-26T20:20:01.083Z,11.85
2023-10-26T20:22:27.747Z,12.20
2023-10-26T20:24:54.272Z,12.57
2023-10-26T20:27:20.875Z,11.90
2023-10-26T20:29:47.510Z,11.88
2023-10-26T20:32:14.608Z,12.55
2023-10-26T20:34:41.305Z,12.70
2023-10-26T20:37:08.141Z,12.02
2023-10-26T20:39:34.721Z,13.02
2023-10-26T20:42:01.358Z,13.30
2023-10-26T20:44:27.917Z,12.00
2023-10-26T20:46:54.506Z,12.40
2023-10-26T20:49:21.097Z,12.05
2023-10-26T20:51:47.665Z,12.73
2023-10-26T20:54:14.210Z,11.73
2023-10-26T20:56:40.709Z,12.18
2023-10-26T20:59:07.618Z,12.80
2023-10-26T21:01:34.300Z,12.35
2023-10-26T21:04:00.882Z,14.05
2023-10-26T21:06:27.520Z,13.13
2023-10-26T21:08:54.450Z,12.90
2023-10-26T21:11:21.496Z,12.53
2023-10-26T21:13:48.261Z,12.65
2023-10-26T21:16:15.454Z,12.00
2023-10-26T21:18:42.921Z,13.57
2023-10-26T21:21:11.380Z,14.43
2023-10-26T21:23:38.957Z,13.37
2023-10-26T21:26:09.722Z,15.48
2023-10-26T21:28:38.758Z,14.48
2023-10-26T21:31:06.424Z,14.32
2023-10-26T21:33:34.144Z,13.20
2023-10-26T21:36:01.228Z,12.93
2023-10-26T21:38:27.839Z,13.68
2023-10-26T21:40:54.422Z,14.88
2023-10-26T21:43:21.024Z,15.98
2023-10-26T21:45:47.676Z,13.25
2023-10-26T21:48:14.702Z,14.10
2023-10-26T21:50:41.929Z,14.73
2023-10-26T21:53:08.657Z,15.70
2023-10-26T21:55:38.344Z,15.45
2023-10-26T21:58:05.154Z,15.15
2023-10-26T22:00:32.366Z,16.40
2023-10-26T22:02:59.243Z,16.45
2023-10-26T22:05:27.153Z,19.00
2023-10-26T22:07:54.092Z,16.70
2023-10-26T22:10:21.647Z,14.73
2023-10-26T22:12:48.815Z,16.10
2023-10-26T22:15:15.556Z,15.85
2023-10-26T22:17:43.017Z,15.85
2023-10-26T22:20:09.969Z,15.45
2023-10-26T22:22:37.835Z,13.77
2023-10-26T22:25:04.876Z,14.80
2023-10-26T22:27:32.172Z,15.52
2023-10-26T22:29:59.275Z,14.65
2023-10-26T22:32:25.796Z,13.95
2023-10-26T22:34:52.494Z,13.73
2023-10-26T22:37:20.035Z,17.40
2023-10-26T22:39:48.309Z,14.15
2023-10-26T22:42:15.863Z,14.23
2023-10-26T22:44:43.067Z,14.20
2023-10-26T22:47:09.627Z,14.45
2023-10-26T22:49:36.427Z,15.53
2023-10-26T22:52:03.388Z,15.35
2023-10-26T22:54:30.604Z,16.25
2023-10-26T22:56:57.069Z,16.45
2023-10-26T22:59:23.545Z,15.30
2023-10-26T23:01:51.129Z,14.50
2023-10-26T23:04:18.985Z,16.77
2023-10-26T23:06:45.714Z,16.10
2023-10-26T23:09:14.438Z,15.82
2023-10-26T23:11:41.104Z,16.45
2023-10-26T23:14:07.676Z,15.77
2023-10-26T23:16:36.113Z,13.85
2023-10-26T23:19:03.407Z,13.43
2023-10-26T23:21:30.517Z,12.82
2023-10-26T23:23:57.860Z,12.27
2023-10-26T23:26:24.329Z,14.13
2023-10-26T23:28:50.803Z,12.50
2023-10-26T23:31:17.285Z,12.10
2023-10-26T23:33:43.784Z,13.30
2023-10-26T23:36:10.512Z,12.82
2023-10-26T23:38:37.149Z,12.67
2023-10-26T23:41:03.816Z,12.90
2023-10-26T23:43:30.288Z,12.52
2023-10-26T23:45:58.826Z,13.35
2023-10-26T23:48:25.919Z,11.63
2023-10-26T23:50:52.746Z,15.00
2023-10-26T23:53:20.252Z,13.23
2023-10-26T23:55:48.009Z,11.55
2023-10-26T23:58:14.651Z,11.63
